Time;durP1;ratioP1;P1;durP2;ratioP2;P2;SDS_P1;SDS_P2;PMS_P1;PMS_P2;Temp;Humidity;BMP_temperature;BMP_pressure;BME280_temperature;BME280_humidity;BME280_pressure;Samples;Min_cycle;Max_cycle;Signal;HPM_P1;HPM_P2
2021/03/25 00:02:10;;;;;;;44.90;38.47;;;;;;;11.40;55.72;101835.09;6194955;28;20505;-56
2021/03/25 00:05:33;;;;;;;38.40;33.13;;;;;;;11.27;56.42;101847.19;6192654;28;20228;-55
2021/03/25 00:08:54;;;;;;;50.80;36.83;;;;;;;11.57;54.93;101841.22;6206529;28;20228;-53
2021/03/25 00:12:15;;;;;;;40.47;34.33;;;;;;;11.30;55.94;101847.22;6194704;28;20230;-56
2021/03/25 00:15:36;;;;;;;46.00;36.43;;;;;;;11.43;55.41;101851.59;6199781;28;20233;-56
2021/03/25 00:18:56;;;;;;;46.90;35.13;;;;;;;11.38;55.70;101852.44;6198412;28;20234;-55
2021/03/25 00:22:17;;;;;;;46.27;36.23;;;;;;;11.37;55.16;101841.13;6201605;28;20262;-55
2021/03/25 00:25:39;;;;;;;47.77;34.87;;;;;;;11.24;55.75;101847.16;6200606;28;20252;-52
2021/03/25 00:29:00;;;;;;;48.57;37.60;;;;;;;11.04;56.42;101840.13;6197849;28;20228;-54
2021/03/25 00:32:21;;;;;;;47.70;36.83;;;;;;;11.11;55.76;101834.94;6199878;28;20237;-57
2021/03/25 00:35:42;;;;;;;42.13;36.23;;;;;;;11.12;55.64;101828.88;6198727;28;20237;-52
2021/03/25 00:39:06;;;;;;;41.73;35.03;;;;;;;11.02;56.44;101835.78;6193312;28;20240;-54
2021/03/25 00:42:26;;;;;;;44.10;33.20;;;;;;;11.03;56.25;101834.88;6190424;28;20225;-57
2021/03/25 00:45:50;;;;;;;43.33;35.27;;;;;;;10.62;57.57;101835.50;6196178;28;20237;-52
2021/03/25 00:49:11;;;;;;;41.07;35.60;;;;;;;10.70;57.12;101840.78;6194962;28;20230;-56
2021/03/25 00:52:32;;;;;;;39.60;33.83;;;;;;;10.79;56.81;101833.88;6196837;28;20237;-57
2021/03/25 00:55:53;;;;;;;44.00;34.00;;;;;;;10.90;56.65;101843.53;6199090;28;20225;-53
2021/03/25 00:59:13;;;;;;;48.40;37.23;;;;;;;10.85;56.08;101838.28;6198891;28;20237;-55
2021/03/25 01:02:35;;;;;;;46.00;35.40;;;;;;;10.73;57.00;101836.47;6198114;28;20507;-56
2021/03/25 01:05:55;;;;;;;45.60;34.27;;;;;;;10.80;56.51;101833.03;6194130;28;20236;-56
2021/03/25 01:09:20;;;;;;;41.37;35.00;;;;;;;10.62;57.52;101840.72;6195107;28;20233;-57
2021/03/25 01:12:41;;;;;;;43.37;37.87;;;;;;;10.69;56.79;101842.53;6199226;28;20233;-56
2021/03/25 01:16:03;;;;;;;42.40;36.23;;;;;;;10.43;58.23;101845.81;6199165;28;20236;-55
2021/03/25 01:19:27;;;;;;;46.17;37.80;;;;;;;9.95;60.01;101841.88;6200632;28;20233;-57
2021/03/25 01:22:48;;;;;;;42.73;36.77;;;;;;;10.51;58.14;101842.41;6201108;28;20550;-55
2021/03/25 01:26:08;;;;;;;47.97;38.23;;;;;;;10.46;58.05;101831.06;6203153;28;20228;-55
2021/03/25 01:29:29;;;;;;;48.67;38.87;;;;;;;10.43;58.08;101840.59;6217006;28;20221;-57
2021/03/25 01:32:49;;;;;;;47.73;39.00;;;;;;;10.54;58.12;101837.19;6203778;28;20225;-53
2021/03/25 01:36:12;;;;;;;49.67;37.03;;;;;;;9.97;59.59;101834.94;6202684;28;20237;-53
2021/03/25 01:39:33;;;;;;;44.87;37.20;;;;;;;9.79;60.61;101837.34;6197158;28;20633;-55
2021/03/25 01:43:07;;;;;;;54.87;39.13;;;;;;;9.94;59.90;101845.31;6192690;28;20233;-56
2021/03/25 01:46:30;;;;;;;49.97;39.07;;;;;;;10.09;59.15;101843.75;6197191;28;20230;-56
2021/03/25 01:49:52;;;;;;;48.37;41.50;;;;;;;10.24;59.15;101851.69;6203296;28;21023;-56
2021/03/25 01:53:30;;;;;;;47.43;39.27;;;;;;;9.90;60.44;101859.16;6200498;28;20240;-54
2021/03/25 01:57:07;;;;;;;55.73;43.53;;;;;;;9.61;61.97;101846.69;6201165;28;20615;-56
2021/03/25 02:00:39;;;;;;;56.93;43.13;;;;;;;9.71;61.45;101846.81;6202864;28;20618;-53
2021/03/25 02:04:19;;;;;;;61.60;43.43;;;;;;;10.00;60.78;101845.41;6202007;28;20594;-53
2021/03/25 02:07:56;;;;;;;49.30;40.83;;;;;;;9.51;62.33;101839.66;6217419;28;20798;-53
2021/03/25 02:11:24;;;;;;;54.03;42.53;;;;;;;9.21;63.70;101841.03;6199283;28;20516;-56
2021/03/25 02:14:53;;;;;;;52.13;43.33;;;;;;;9.41;63.08;101848.22;6199461;28;21021;-54
2021/03/25 02:18:21;;;;;;;53.40;44.90;;;;;;;9.58;62.66;101841.47;6186938;28;20228;-56
2021/03/25 02:22:40;;;;;;;54.63;41.93;;;;;;;9.24;63.87;101843.66;6195434;28;20261;-56
2021/03/25 02:26:05;;;;;;;53.67;40.33;;;;;;;9.86;61.96;101831.38;6199469;28;20234;-54
2021/03/25 02:29:43;;;;;;;51.20;41.60;;;;;;;9.30;63.38;101836.81;6196909;28;20221;-55
2021/03/25 02:33:09;;;;;;;47.30;40.27;;;;;;;9.34;62.88;101836.84;6194202;28;20234;-57
2021/03/25 02:36:40;;;;;;;55.23;40.97;;;;;;;9.31;63.08;101835.97;6199806;28;20622;-56
2021/03/25 02:40:10;;;;;;;49.30;38.87;;;;;;;9.71;61.65;101829.47;6197036;28;20241;-54
2021/03/25 02:43:41;;;;;;;47.13;37.43;;;;;;;9.82;61.15;101834.78;6200786;28;20233;-56
2021/03/25 02:47:04;;;;;;;52.73;37.93;;;;;;;9.52;62.19;101825.81;6201675;28;20313;-55
2021/03/25 02:50:31;;;;;;;51.07;38.80;;;;;;;9.70;61.71;101824.28;6194780;28;20233;-55
2021/03/25 02:53:54;;;;;;;49.73;39.30;;;;;;;9.77;60.96;101826.97;6195707;28;20765;-54
2021/03/25 02:57:19;;;;;;;48.47;36.70;;;;;;;10.23;59.78;101831.72;6212243;28;20237;-55
2021/03/25 03:00:41;;;;;;;50.20;37.67;;;;;;;10.50;58.64;101825.00;6201084;28;20240;-56
2021/03/25 03:04:07;;;;;;;44.57;36.07;;;;;;;10.16;59.63;101824.72;6190731;28;20233;-57
2021/03/25 03:07:41;;;;;;;48.40;38.10;;;;;;;10.34;59.08;101829.25;6196252;28;20233;-55
2021/03/25 03:11:19;;;;;;;47.83;35.50;;;;;;;10.21;58.99;101821.28;6200714;28;20225;-56
2021/03/25 03:14:45;;;;;;;45.57;36.13;;;;;;;10.28;58.99;101832.63;6198216;28;22839;-56
2021/03/25 03:18:14;;;;;;;45.50;37.03;;;;;;;9.69;61.14;101827.72;6202140;28;20233;-52
2021/03/25 03:21:42;;;;;;;46.93;37.53;;;;;;;9.95;60.42;101831.47;6482191;22;20233;-57
2021/03/25 03:25:17;;;;;;;45.37;36.77;;;;;;;9.68;61.10;101826.84;6184042;28;20260;-57
2021/03/25 03:28:42;;;;;;;47.70;38.27;;;;;;;9.85;60.57;101822.69;6186915;28;20629;-55
2021/03/25 03:32:30;;;;;;;54.83;41.90;;;;;;;9.86;60.67;101823.56;6202993;28;20816;-57
2021/03/25 03:35:53;;;;;;;53.67;42.60;;;;;;;9.84;61.10;101820.06;6201983;28;20226;-55
2021/03/25 03:39:18;;;;;;;50.10;39.93;;;;;;;9.97;60.72;101816.75;6211408;28;20688;-54
2021/03/25 03:42:43;;;;;;;46.43;39.03;;;;;;;10.44;59.27;101818.03;6183084;28;20245;-55
2021/03/25 03:46:06;;;;;;;51.57;43.17;;;;;;;10.49;59.29;101818.03;6213403;28;20621;-52
2021/03/25 03:49:36;;;;;;;63.63;44.83;;;;;;;9.97;60.46;101816.75;6180846;28;20279;-51
2021/03/25 03:52:57;;;;;;;59.40;45.07;;;;;;;10.12;60.00;101817.72;6198636;28;20598;-55
2021/03/25 03:56:28;;;;;;;70.30;46.30;;;;;;;10.51;58.93;101816.34;6189617;28;20236;-55
2021/03/25 03:59:57;;;;;;;51.03;42.23;;;;;;;10.40;59.71;101811.91;6187283;28;20337;-55
2021/03/25 04:03:23;;;;;;;57.97;46.57;;;;;;;9.74;61.81;101829.50;6184952;28;20642;-57
2021/03/25 04:07:07;;;;;;;60.87;44.90;;;;;;;10.07;60.49;101822.03;6201346;28;20233;-55
2021/03/25 04:10:50;;;;;;;50.97;42.00;;;;;;;10.42;59.44;101812.78;6199477;28;20253;-56
2021/03/25 04:14:21;;;;;;;57.73;44.87;;;;;;;10.66;58.53;101815.56;6199198;28;20622;-54
2021/03/25 04:18:03;;;;;;;53.67;43.70;;;;;;;10.63;58.69;101819.03;6187383;28;20545;-55
2021/03/25 04:21:45;;;;;;;53.33;44.97;;;;;;;10.57;58.77;101824.22;6189422;28;20618;-54
2021/03/25 04:25:10;;;;;;;63.27;47.10;;;;;;;10.28;59.92;101822.22;6197421;28;20234;-55
2021/03/25 04:28:36;;;;;;;59.97;46.13;;;;;;;10.01;60.79;101820.25;6198544;28;20221;-55
2021/03/25 04:31:57;;;;;;;61.10;45.63;;;;;;;10.42;59.31;101827.56;6200883;28;20233;-54
2021/03/25 04:35:20;;;;;;;54.53;43.37;;;;;;;10.50;59.37;101830.22;6201130;28;20657;-57
2021/03/25 04:38:42;;;;;;;50.10;42.23;;;;;;;10.34;59.38;101824.91;6198001;28;20237;-55
2021/03/25 04:42:03;;;;;;;50.90;40.53;;;;;;;10.72;58.17;101826.91;6203529;28;20224;-57
2021/03/25 04:45:27;;;;;;;52.63;41.97;;;;;;;10.77;57.98;101830.41;6195621;28;20229;-55
2021/03/25 04:48:49;;;;;;;53.57;43.80;;;;;;;10.45;59.02;101835.41;6201205;28;20234;-54
2021/03/25 04:52:17;;;;;;;50.17;40.40;;;;;;;10.67;58.36;101844.25;6201419;28;20225;-57
2021/03/25 04:55:38;;;;;;;54.30;41.07;;;;;;;10.69;58.29;101834.69;6190935;28;20331;-55
2021/03/25 04:59:00;;;;;;;52.00;41.50;;;;;;;10.64;58.29;101833.78;6204394;28;20232;-52
2021/03/25 05:02:22;;;;;;;51.17;41.33;;;;;;;10.58;58.79;101833.75;6200418;28;20237;-53
2021/03/25 05:05:42;;;;;;;50.07;41.43;;;;;;;10.61;59.45;101836.38;6200863;28;20256;-53
2021/03/25 05:09:04;;;;;;;54.20;42.57;;;;;;;10.59;59.63;101840.72;6202413;28;20221;-53
2021/03/25 05:12:25;;;;;;;53.33;42.47;;;;;;;10.69;59.47;101836.44;6203026;28;20627;-54
2021/03/25 05:15:45;;;;;;;57.03;44.57;;;;;;;10.66;59.80;101855.50;6196016;28;20527;-52
2021/03/25 05:19:16;;;;;;;51.67;42.90;;;;;;;10.30;60.88;101853.47;6201630;28;20329;-53
2021/03/25 05:22:44;;;;;;;51.40;42.40;;;;;;;10.56;59.81;101849.34;6189843;28;20224;-56
2021/03/25 05:26:09;;;;;;;47.70;39.83;;;;;;;10.77;59.46;101861.66;6202288;28;20233;-56
2021/03/25 05:29:31;;;;;;;52.23;42.43;;;;;;;10.40;60.65;101856.19;6199996;28;20594;-56
2021/03/25 05:32:56;;;;;;;42.27;35.40;;;;;;;10.58;60.21;101854.59;6201039;28;20276;-56
2021/03/25 05:36:16;;;;;;;47.10;40.70;;;;;;;10.78;60.28;101847.78;6206602;28;20237;-57
2021/03/25 05:39:38;;;;;;;45.47;38.00;;;;;;;10.54;60.65;101853.69;6198270;28;20232;-53
2021/03/25 05:43:20;;;;;;;48.67;36.53;;;;;;;10.80;60.18;101855.63;6200200;28;20240;-53
2021/03/25 05:46:48;;;;;;;53.47;40.60;;;;;;;10.63;60.10;101855.50;6202536;28;20237;-55
2021/03/25 05:50:21;;;;;;;45.13;35.67;;;;;;;10.48;60.60;101863.19;6197009;28;20798;-55
2021/03/25 05:53:56;;;;;;;54.97;40.00;;;;;;;10.24;61.43;101859.50;6199030;28;20238;-56
2021/03/25 05:57:26;;;;;;;54.00;41.13;;;;;;;10.28;61.47;101869.06;6191196;28;20233;-55
2021/03/25 06:00:58;;;;;;;46.77;36.47;;;;;;;10.54;61.00;101865.84;6199911;28;20240;-57
2021/03/25 06:04:21;;;;;;;50.03;36.67;;;;;;;10.35;61.46;101873.53;6200902;28;20229;-54
2021/03/25 06:07:59;;;;;;;53.60;39.40;;;;;;;10.52;61.21;101878.00;6201956;28;20245;-56
2021/03/25 06:11:32;;;;;;;52.17;38.53;;;;;;;10.84;60.14;101884.31;6202856;28;20237;-57
2021/03/25 06:15:05;;;;;;;52.97;39.47;;;;;;;10.79;60.18;101890.34;6184931;28;20470;-55
2021/03/25 06:18:50;;;;;;;56.13;40.87;;;;;;;11.13;59.42;101890.59;6174683;28;20233;-55
2021/03/25 06:22:17;;;;;;;59.47;40.97;;;;;;;10.79;59.81;101893.81;6194504;28;20229;-57
2021/03/25 06:25:53;;;;;;;51.53;39.70;;;;;;;10.36;61.21;101901.28;6200189;28;20236;-56
2021/03/25 06:29:18;;;;;;;61.67;44.03;;;;;;;10.36;61.84;101908.25;6197706;28;20236;-54
2021/03/25 06:32:49;;;;;;;49.33;40.63;;;;;;;10.37;61.15;101913.47;6199922;28;20229;-55
2021/03/25 06:36:13;;;;;;;64.07;44.67;;;;;;;9.69;63.26;101921.34;6199179;28;20234;-54
2021/03/25 06:39:53;;;;;;;60.93;44.03;;;;;;;9.03;66.26;101923.94;6193031;28;20229;-55
2021/03/25 06:43:23;;;;;;;55.20;40.23;;;;;;;9.68;64.08;101919.63;6200431;28;20228;-56
2021/03/25 06:46:46;;;;;;;59.50;45.63;;;;;;;10.28;62.17;101912.47;6202187;28;20236;-57
2021/03/25 06:50:08;;;;;;;59.07;44.47;;;;;;;10.15;62.52;101917.53;6196863;28;20237;-56
2021/03/25 06:53:31;;;;;;;65.27;44.57;;;;;;;10.50;61.42;101919.63;6213940;28;20363;-58
2021/03/25 06:56:56;;;;;;;66.37;43.40;;;;;;;10.38;61.95;101914.34;6208399;28;20233;-58
2021/03/25 07:00:20;;;;;;;60.50;40.67;;;;;;;10.50;61.05;101923.97;6200846;28;20324;-54
2021/03/25 07:03:40;;;;;;;63.03;43.80;;;;;;;10.64;60.85;101919.75;6205476;28;20343;-56
2021/03/25 07:07:03;;;;;;;63.43;43.57;;;;;;;10.49;61.51;101920.50;6211942;28;20549;-58
2021/03/25 07:10:25;;;;;;;65.27;40.20;;;;;;;10.61;60.74;101922.34;6205844;28;20241;-57
2021/03/25 07:13:49;;;;;;;63.10;41.93;;;;;;;9.21;65.43;101933.75;6211153;28;20229;-56
2021/03/25 07:17:14;;;;;;;51.83;37.67;;;;;;;8.48;67.53;101929.13;6201900;28;20241;-56
2021/03/25 07:20:36;;;;;;;53.13;38.67;;;;;;;8.95;66.64;101934.19;6214018;28;20639;-58
2021/03/25 07:23:59;;;;;;;50.17;38.20;;;;;;;9.02;66.53;101937.78;6206492;28;20614;-59
2021/03/25 07:27:25;;;;;;;49.80;36.20;;;;;;;8.62;67.71;101939.72;6213537;28;20470;-56
2021/03/25 07:30:48;;;;;;;48.13;38.13;;;;;;;8.86;66.59;101941.88;6218251;28;20233;-56
2021/03/25 07:34:10;;;;;;;49.03;36.03;;;;;;;8.95;66.34;101938.53;6214808;28;20232;-55
2021/03/25 07:37:37;;;;;;;51.70;35.07;;;;;;;9.65;64.24;101939.53;6214022;28;20257;-58
2021/03/25 07:41:07;;;;;;;46.13;36.03;;;;;;;8.82;66.72;101945.25;6193106;28;20256;-58
2021/03/25 07:44:38;;;;;;;47.40;33.67;;;;;;;8.75;67.06;101954.69;6208320;28;20681;-56
2021/03/25 07:48:15;;;;;;;51.27;35.17;;;;;;;8.70;66.66;101952.84;6204756;28;20609;-54
2021/03/25 07:51:50;;;;;;;53.13;39.17;;;;;;;8.47;68.13;101951.63;6203616;28;20240;-53
2021/03/25 07:55:22;;;;;;;44.40;32.93;;;;;;;8.81;66.75;101949.56;6206812;28;20229;-58
2021/03/25 07:58:44;;;;;;;47.80;33.60;;;;;;;9.83;63.18;101957.09;6204516;28;20238;-56
2021/03/25 08:02:25;;;;;;;51.80;38.77;;;;;;;9.21;64.60;101958.00;6206702;28;20252;-55
2021/03/25 08:05:47;;;;;;;61.10;45.37;;;;;;;9.48;63.91;101964.47;6211314;28;20224;-54
2021/03/25 08:09:10;;;;;;;71.90;52.03;;;;;;;8.93;65.89;101966.22;6209405;28;20238;-55
2021/03/25 08:12:34;;;;;;;63.63;49.33;;;;;;;9.31;64.40;101965.94;6191944;28;20237;-55
2021/03/25 08:16:06;;;;;;;62.63;48.27;;;;;;;8.62;66.93;101963.97;6203806;28;20237;-58
2021/03/25 08:19:42;;;;;;;61.97;47.03;;;;;;;10.25;61.99;101960.16;6206832;28;20856;-58
2021/03/25 08:23:18;;;;;;;56.23;40.70;;;;;;;9.22;64.54;101974.47;6201516;28;20647;-56
2021/03/25 08:26:53;;;;;;;56.97;43.10;;;;;;;9.32;64.10;101971.13;6204727;28;20237;-56
2021/03/25 08:30:49;;;;;;;52.67;42.10;;;;;;;10.63;59.84;101964.91;6208352;28;20236;-55
2021/03/25 08:34:41;;;;;;;59.23;45.63;;;;;;;10.79;58.83;101960.69;6203197;28;20868;-58
2021/03/25 08:38:29;;;;;;;50.13;38.63;;;;;;;9.74;62.79;101971.72;6203560;28;20229;-56
2021/03/25 08:41:54;;;;;;;48.83;37.23;;;;;;;9.09;64.37;101976.00;6182735;28;20241;-58
2021/03/25 08:45:21;;;;;;;61.17;45.00;;;;;;;9.54;63.39;101976.63;6208346;28;20646;-54
2021/03/25 08:48:49;;;;;;;60.63;46.33;;;;;;;9.04;64.75;101980.25;6206380;28;20240;-58
2021/03/25 08:52:14;;;;;;;64.30;50.93;;;;;;;9.62;62.75;101978.50;6204881;28;20300;-56
2021/03/25 08:55:38;;;;;;;61.77;48.73;;;;;;;9.73;62.75;101977.75;6206719;28;20236;-55
2021/03/25 08:59:01;;;;;;;65.37;46.33;;;;;;;9.29;64.43;101984.09;6202038;28;20225;-55
2021/03/25 09:02:27;;;;;;;61.87;46.47;;;;;;;9.19;64.69;101977.91;6208358;28;20556;-56
2021/03/25 09:05:57;;;;;;;57.67;47.27;;;;;;;9.88;63.10;101979.69;6201336;28;20618;-57
2021/03/25 09:09:38;;;;;;;67.53;51.40;;;;;;;11.12;58.81;101967.91;6202550;28;20228;-57
2021/03/25 09:13:00;;;;;;;63.83;49.60;;;;;;;12.79;54.18;101965.06;6207306;28;20893;-58
2021/03/25 09:16:24;;;;;;;61.23;48.07;;;;;;;13.52;51.09;101954.50;6201271;28;20224;-58
2021/03/25 09:19:49;;;;;;;56.47;48.57;;;;;;;11.14;57.71;101968.78;6207196;28;20233;-58
2021/03/25 09:23:47;;;;;;;54.60;44.00;;;;;;;12.92;53.01;101954.59;6201946;28;20229;-58
2021/03/25 09:27:08;;;;;;;57.07;48.30;;;;;;;11.51;56.55;101948.13;6198649;28;20240;-55
2021/03/25 09:30:36;;;;;;;53.63;41.17;;;;;;;10.86;58.54;101959.00;6195811;28;20229;-57
2021/03/25 09:33:59;;;;;;;55.20;40.80;;;;;;;11.46;57.68;101956.81;6195019;28;20224;-57
2021/03/25 09:37:23;;;;;;;52.53;43.70;;;;;;;12.58;54.31;101955.47;6213443;28;20237;-57
2021/03/25 09:40:48;;;;;;;55.43;39.63;;;;;;;11.71;56.39;101945.66;6208614;28;20241;-56
2021/03/25 09:44:25;;;;;;;43.53;36.83;;;;;;;11.71;56.82;101945.66;6210003;28;20315;-54
2021/03/25 09:47:58;;;;;;;48.50;34.83;;;;;;;13.16;52.77;101953.69;6200646;28;20613;-55
2021/03/25 09:51:21;;;;;;;46.87;36.53;;;;;;;11.97;55.29;101940.53;6208109;28;20828;-59
2021/03/25 09:54:46;;;;;;;42.57;33.87;;;;;;;12.59;53.64;101938.03;6192351;28;20506;-56
2021/03/25 09:58:50;;;;;;;43.27;33.00;;;;;;;12.88;52.65;101940.66;6212403;28;20232;-55
2021/03/25 10:02:10;;;;;;;38.67;34.43;;;;;;;12.86;54.60;101944.16;6205652;28;20245;-58
2021/03/25 10:05:39;;;;;;;41.60;34.10;;;;;;;12.62;54.22;101935.44;6211161;28;20233;-58
2021/03/25 10:09:00;;;;;;;41.03;31.97;;;;;;;11.83;56.03;101943.06;6204685;28;20233;-57
2021/03/25 10:12:53;;;;;;;41.57;32.70;;;;;;;12.69;53.75;101937.16;6200448;28;20229;-54
2021/03/25 10:16:48;;;;;;;41.97;30.93;;;;;;;12.51;54.47;101937.19;6208596;28;20240;-58
2021/03/25 10:20:12;;;;;;;39.13;32.30;;;;;;;13.10;53.01;101931.03;6207634;28;20232;-55
2021/03/25 10:23:36;;;;;;;44.47;31.37;;;;;;;14.42;49.42;101921.72;6212276;28;20308;-57
2021/03/25 10:27:06;;;;;;;36.77;30.23;;;;;;;13.20;52.62;101924.91;6205154;28;20237;-55
2021/03/25 10:30:35;;;;;;;34.53;27.73;;;;;;;12.95;52.88;101915.34;6195053;28;20241;-57
2021/03/25 10:34:03;;;;;;;37.77;29.47;;;;;;;14.46;49.43;101902.50;6207909;28;20229;-56
2021/03/25 10:37:34;;;;;;;44.93;32.43;;;;;;;13.99;50.83;101904.53;6204767;28;20228;-56
2021/03/25 10:40:58;;;;;;;33.73;26.43;;;;;;;16.15;44.39;101897.13;6205875;28;20253;-56
2021/03/25 10:44:25;;;;;;;32.13;26.67;;;;;;;15.12;47.47;101894.03;6204353;28;20618;-57
2021/03/25 10:47:51;;;;;;;32.17;26.10;;;;;;;13.85;50.63;101898.53;6209234;28;20582;-58
2021/03/25 10:51:17;;;;;;;33.27;26.93;;;;;;;15.27;45.67;101892.97;6212349;28;20328;-54
2021/03/25 10:54:38;;;;;;;26.77;22.57;;;;;;;18.34;39.36;101877.03;6205856;28;20233;-58
2021/03/25 10:58:02;;;;;;;28.40;23.93;;;;;;;21.00;33.60;101869.97;6209071;28;20232;-55
2021/03/25 11:01:27;;;;;;;30.00;24.10;;;;;;;20.87;33.04;101867.81;6211955;28;20241;-57
2021/03/25 11:05:04;;;;;;;29.17;22.48;;;;;;;23.97;26.82;101851.31;6208205;28;20230;-59
2021/03/25 11:08:36;;;;;;;23.55;20.63;;;;;;;22.41;29.57;101852.16;6203822;28;20217;-55
2021/03/25 11:12:02;;;;;;;25.35;19.48;;;;;;;25.86;25.84;101843.13;6208710;28;20225;-59
2021/03/25 11:15:31;;;;;;;27.48;21.77;;;;;;;22.38;29.88;101839.03;6207906;28;20225;-59
2021/03/25 11:18:57;;;;;;;28.20;23.17;;;;;;;26.31;24.58;101841.44;6207609;28;20224;-58
2021/03/25 11:22:17;;;;;;;26.45;20.15;;;;;;;28.36;22.18;101842.72;6211292;28;20340;-56
2021/03/25 11:25:38;;;;;;;20.13;18.17;;;;;;;29.72;19.92;101838.53;6207992;28;20614;-60
2021/03/25 11:29:01;;;;;;;20.20;17.10;;;;;;;26.49;21.50;101851.00;6209573;28;20237;-59
2021/03/25 11:32:24;;;;;;;18.48;16.52;;;;;;;26.22;23.32;101850.84;6200596;28;20229;-61
2021/03/25 11:35:44;;;;;;;17.80;15.43;;;;;;;24.83;22.96;101844.28;6207057;28;20229;-59
2021/03/25 11:39:28;;;;;;;16.23;10.80;;;;;;;18.88;31.50;101855.44;6207335;28;21043;-59
2021/03/25 11:43:04;;;;;;;10.95;9.63;;;;;;;20.67;29.98;101844.72;6208399;28;20259;-58
2021/03/25 11:46:27;;;;;;;13.07;11.80;;;;;;;23.15;25.51;101838.34;6210303;28;20320;-59
2021/03/25 11:49:50;;;;;;;16.08;14.38;;;;;;;19.96;31.20;101834.66;6205128;28;20425;-58
2021/03/25 11:53:31;;;;;;;13.95;12.55;;;;;;;20.75;29.83;101838.22;6206961;28;20233;-57
2021/03/25 11:56:56;;;;;;;17.58;13.13;;;;;;;17.64;34.94;101835.59;6205959;28;20261;-57
2021/03/25 12:00:19;;;;;;;14.55;12.57;;;;;;;20.21;31.18;101831.22;6217265;28;20237;-58
2021/03/25 12:03:48;;;;;;;14.88;13.40;;;;;;;18.80;33.06;101829.25;6209034;28;20225;-58
2021/03/25 12:07:17;;;;;;;14.02;12.40;;;;;;;18.30;35.01;101827.03;6209907;28;20240;-57
2021/03/25 12:10:38;;;;;;;16.83;14.13;;;;;;;15.36;40.19;101829.88;6210317;28;20763;-53
2021/03/25 12:13:58;;;;;;;18.20;16.27;;;;;;;16.01;39.33;101828.13;6201839;28;20344;-58
2021/03/25 12:17:20;;;;;;;16.77;13.63;;;;;;;15.93;39.48;101831.75;6204283;28;20336;-57
2021/03/25 12:20:40;;;;;;;14.80;13.23;;;;;;;16.26;39.14;101832.09;6209870;28;20339;-59
2021/03/25 12:24:03;;;;;;;15.17;13.57;;;;;;;15.93;39.17;101826.47;6203601;28;20256;-60
2021/03/25 12:27:26;;;;;;;14.83;13.23;;;;;;;15.72;39.74;101826.78;6211594;28;20483;-54
2021/03/25 12:30:48;;;;;;;15.43;11.97;;;;;;;14.79;40.85;101821.81;6201703;28;20228;-56
2021/03/25 12:34:11;;;;;;;16.20;13.57;;;;;;;15.05;40.74;101818.03;6210092;28;20232;-55
2021/03/25 12:37:31;;;;;;;14.77;12.37;;;;;;;15.09;40.60;101814.50;6208419;28;20225;-55
2021/03/25 12:40:53;;;;;;;15.73;12.00;;;;;;;16.08;38.72;101808.75;6213499;28;20244;-56
2021/03/25 12:44:15;;;;;;;11.97;10.60;;;;;;;18.88;32.95;101802.66;6207570;28;20237;-58
2021/03/25 12:47:35;;;;;;;14.37;12.40;;;;;;;17.50;35.64;101804.31;6194557;28;20355;-57
2021/03/25 12:50:57;;;;;;;16.57;12.13;;;;;;;14.95;40.03;101812.91;6205558;28;20233;-58
2021/03/25 12:54:17;;;;;;;13.20;11.50;;;;;;;14.84;40.40;101803.41;6208401;28;20249;-58
2021/03/25 12:57:39;;;;;;;13.40;12.00;;;;;;;14.73;41.48;101806.13;6209204;28;20494;-59
2021/03/25 13:01:03;;;;;;;14.23;12.50;;;;;;;15.16;40.76;101796.03;6202632;28;20512;-57
2021/03/25 13:04:23;;;;;;;14.80;11.80;;;;;;;14.94;41.41;101803.28;6206121;28;21858;-53
2021/03/25 13:07:44;;;;;;;10.77;9.67;;;;;;;15.97;41.34;101792.31;6204042;28;20237;-58
2021/03/25 13:11:06;;;;;;;12.47;9.97;;;;;;;17.10;37.08;101792.88;6208917;28;20499;-56
2021/03/25 13:14:28;;;;;;;12.90;10.30;;;;;;;17.68;37.13;101787.22;6202363;28;20320;-54
2021/03/25 13:17:48;;;;;;;14.80;10.47;;;;;;;15.82;38.33;101794.28;6211427;28;20229;-55
2021/03/25 13:21:11;;;;;;;13.67;10.47;;;;;;;16.31;37.20;101788.22;6212858;28;20543;-55
2021/03/25 13:24:31;;;;;;;10.50;9.40;;;;;;;20.58;32.13;101783.19;6213246;28;20332;-57
2021/03/25 13:27:52;;;;;;;10.80;9.27;;;;;;;21.41;28.18;101773.97;6211803;28;20236;-57
2021/03/25 13:31:14;;;;;;;11.95;10.25;;;;;;;21.59;27.33;101767.97;6211696;28;20225;-56
2021/03/25 13:34:35;;;;;;;9.50;8.50;;;;;;;19.96;30.51;101773.00;6199729;28;20221;-56
2021/03/25 13:37:55;;;;;;;12.18;10.10;;;;;;;17.50;34.86;101775.34;6210469;28;20428;-58
2021/03/25 13:41:16;;;;;;;10.87;9.83;;;;;;;16.89;36.40;101788.06;6204893;28;20240;-58
2021/03/25 13:44:36;;;;;;;12.37;9.53;;;;;;;21.42;29.41;101776.56;6214617;28;20233;-58
2021/03/25 13:47:58;;;;;;;9.10;8.13;;;;;;;25.02;24.72;101766.06;6204431;28;20237;-57
2021/03/25 13:51:20;;;;;;;10.85;8.73;;;;;;;27.41;21.67;101768.75;6214239;28;20560;-57
2021/03/25 13:54:40;;;;;;;13.55;9.90;;;;;;;23.46;25.57;101763.34;6198582;28;20329;-56
2021/03/25 13:58:01;;;;;;;11.15;9.93;;;;;;;17.71;33.14;101779.25;6210942;28;20804;-57
2021/03/25 14:01:22;;;;;;;10.82;9.10;;;;;;;21.02;28.31;101772.78;6200581;28;20244;-56
2021/03/25 14:04:46;;;;;;;10.95;9.50;;;;;;;21.59;27.61;101767.09;6204083;28;20241;-58
2021/03/25 14:08:07;;;;;;;10.35;9.30;;;;;;;22.66;25.19;101755.53;6209687;28;20225;-55
2021/03/25 14:11:28;;;;;;;11.57;10.20;;;;;;;21.16;28.14;101763.47;6205650;28;20371;-57
2021/03/25 14:14:48;;;;;;;10.82;9.73;;;;;;;19.52;29.87;101762.06;6210847;28;20224;-60
2021/03/25 14:18:10;;;;;;;10.93;9.77;;;;;;;19.31;30.78;101753.91;6198837;28;20571;-53
2021/03/25 14:21:31;;;;;;;11.80;8.98;;;;;;;22.57;26.17;101749.72;6197012;28;20229;-60
2021/03/25 14:24:52;;;;;;;15.52;13.93;;;;;;;22.29;26.59;101742.09;6203657;28;20312;-72
2021/03/25 14:28:15;;;;;;;10.82;9.65;;;;;;;23.99;25.01;101745.69;6202785;28;20324;-66
2021/03/25 14:31:35;;;;;;;11.65;8.60;;;;;;;19.92;29.21;101755.53;6199085;28;20265;-67
2021/03/25 14:34:56;;;;;;;10.55;8.55;;;;;;;20.12;29.14;101747.75;6204678;28;20241;-70
2021/03/25 14:38:20;;;;;;;9.30;8.40;;;;;;;19.86;29.10;101749.50;6205152;28;20307;-57
2021/03/25 14:41:41;;;;;;;11.02;9.93;;;;;;;17.35;33.20;101747.63;6208112;28;20254;-58
2021/03/25 14:45:02;;;;;;;10.10;9.07;;;;;;;17.62;33.31;101748.75;6214639;28;20233;-58
2021/03/25 14:48:22;;;;;;;10.57;9.48;;;;;;;18.18;32.76;101742.13;6203842;28;20237;-58
2021/03/25 14:51:42;;;;;;;9.98;8.98;;;;;;;17.96;32.41;101736.53;6212785;28;20245;-58
2021/03/25 14:55:06;;;;;;;10.33;8.80;;;;;;;17.96;32.98;101741.81;6213245;28;20523;-58
2021/03/25 14:58:26;;;;;;;11.47;10.20;;;;;;;17.73;33.18;101739.72;6210038;28;20228;-58
2021/03/25 15:01:47;;;;;;;10.17;9.23;;;;;;;17.71;33.75;101737.09;6209126;28;20269;-58
2021/03/25 15:05:08;;;;;;;12.30;8.67;;;;;;;17.52;36.63;101731.41;6216189;28;20244;-63
2021/03/25 15:08:33;;;;;;;10.20;9.13;;;;;;;15.86;37.85;101738.19;6205877;28;20238;-64
2021/03/25 15:11:54;;;;;;;13.00;10.03;;;;;;;15.24;38.47;101742.59;6215617;28;20600;-64
2021/03/25 15:15:20;;;;;;;11.53;9.43;;;;;;;15.34;38.58;101738.94;6202693;28;20229;-64
2021/03/25 15:18:41;;;;;;;12.87;10.10;;;;;;;16.06;40.33;101747.50;6205091;28;20769;-63
2021/03/25 15:22:02;;;;;;;10.63;9.03;;;;;;;15.91;37.52;101744.22;6208201;28;20648;-64
2021/03/25 15:25:26;;;;;;;13.10;9.77;;;;;;;16.34;37.70;101737.34;6201431;28;20253;-65
2021/03/25 15:28:48;;;;;;;10.20;9.17;;;;;;;15.67;39.13;101748.09;6208644;28;20238;-64
2021/03/25 15:32:11;;;;;;;13.20;9.83;;;;;;;15.74;38.60;101752.38;6205934;28;20752;-64
2021/03/25 15:35:35;;;;;;;10.37;9.23;;;;;;;15.40;39.24;101746.72;6211635;28;20646;-64
2021/03/25 15:38:55;;;;;;;14.73;11.10;;;;;;;15.21;40.26;101753.13;6209720;28;20328;-71
2021/03/25 15:42:16;;;;;;;12.47;9.20;;;;;;;14.67;42.49;101759.88;6208882;28;20241;-72